createdAt,value
2018-08-21T00:00:22.112Z,95803.02
2018-08-21T00:02:51.221Z,95800.36
2018-08-21T00:05:20.286Z,95799.08
2018-08-21T00:07:49.345Z,95800.11
2018-08-21T00:12:54.154Z,95801.66
2018-08-21T00:15:23.206Z,95799.36
2018-08-21T00:17:52.255Z,95797.08
2018-08-21T00:20:21.310Z,95799.92
2018-08-21T00:22:50.365Z,95796.37
2018-08-21T00:25:19.421Z,95800.19
2018-08-21T00:30:24.306Z,95799.64
2018-08-21T00:32:53.409Z,95798.53
2018-08-21T00:35:22.454Z,95798.05
2018-08-21T00:37:51.508Z,95798.26
2018-08-21T00:40:20.553Z,95794.98
2018-08-21T00:42:49.630Z,95804.68
2018-08-21T00:47:54.421Z,95806.64
2018-08-21T00:50:24.388Z,95808.03
2018-08-21T00:52:53.445Z,95806.59
2018-08-21T00:57:59.291Z,95808.38
2018-08-21T01:00:28.371Z,95809.87
2018-08-21T01:02:57.446Z,95806.95
2018-08-21T01:05:26.517Z,95811.34
2018-08-21T01:10:31.383Z,95810.52
2018-08-21T01:13:00.432Z,95811.92
2018-08-21T01:15:31.564Z,95808.55
2018-08-21T01:18:00.609Z,95809.51
2018-08-21T01:23:05.454Z,95804.45
2018-08-21T01:25:34.564Z,95805.45
2018-08-21T01:28:03.642Z,95806.65
2018-08-21T01:30:33.720Z,95804.98
2018-08-21T01:33:02.779Z,95807.59
2018-08-21T01:35:31.839Z,95807.61
2018-08-21T01:38:00.905Z,95813.95
2018-08-21T01:40:29.965Z,95808.87
2018-08-21T01:42:59.137Z,95814.22
2018-08-21T01:45:28.185Z,95817.42
2018-08-21T01:48:02.077Z,95813.73
2018-08-21T01:50:36.333Z,95811.25
2018-08-21T01:55:41.649Z,95814.61
2018-08-21T01:58:10.700Z,95813.78
2018-08-21T02:00:39.745Z,95813.19
2018-08-21T02:03:09.764Z,95817.14
2018-08-21T02:05:39.738Z,95813.31
2018-08-21T02:08:08.774Z,95815.77
2018-08-21T02:14:09.295Z,95814.56
2018-08-21T02:19:14.065Z,95819.85
2018-08-21T02:21:44.077Z,95816.63
2018-08-21T02:24:13.130Z,95813.82
2018-08-21T02:26:42.189Z,95808.89
2018-08-21T02:29:11.263Z,95811.70
2018-08-21T02:31:40.305Z,95808.41
2018-08-21T02:34:09.397Z,95807.63
2018-08-21T02:41:51.026Z,95806.03
2018-08-21T02:44:20.096Z,95809.70
2018-08-21T02:46:50.098Z,95805.55
2018-08-21T02:51:54.885Z,95803.09
2018-08-21T02:54:23.932Z,95801.19
2018-08-21T02:56:52.983Z,95801.89
2018-08-21T03:01:57.850Z,95799.17
2018-08-21T03:04:26.905Z,95802.78
2018-08-21T03:09:31.675Z,95800.98
2018-08-21T03:14:36.437Z,95803.50
2018-08-21T03:17:05.501Z,95804.75
2018-08-21T03:19:34.605Z,95803.02
2018-08-21T03:22:03.657Z,95805.12
2018-08-21T03:24:32.714Z,95801.17
2018-08-21T03:27:01.781Z,95800.39
2018-08-21T03:29:31.824Z,95801.53
2018-08-21T03:34:36.601Z,95795.45
2018-08-21T03:39:41.842Z,95797.05
2018-08-21T03:42:12.890Z,95800.05
2018-08-21T03:44:43.930Z,95795.20
2018-08-21T03:47:12.992Z,95788.80
2018-08-21T03:49:42.063Z,95794.58
2018-08-21T03:52:11.118Z,95789.33
2018-08-21T03:57:15.891Z,95797.66
2018-08-21T03:59:44.968Z,95797.53
2018-08-21T04:02:14.929Z,95803.14
2018-08-21T04:04:44.018Z,95805.94
2018-08-21T04:09:48.862Z,95804.44
2018-08-21T04:14:53.734Z,95815.27
2018-08-21T04:17:22.788Z,95810.95
2018-08-21T04:22:27.558Z,95816.04
2018-08-21T04:27:32.405Z,95823.34
2018-08-21T04:30:01.485Z,95822.63
2018-08-21T04:32:30.623Z,95829.13
2018-08-21T04:34:59.639Z,95833.50
2018-08-21T04:37:28.693Z,95837.41
2018-08-21T04:42:33.567Z,95835.62
2018-08-21T04:45:03.597Z,95838.69
2018-08-21T04:47:32.659Z,95844.17
2018-08-21T04:50:01.719Z,95846.27
2018-08-21T04:52:30.808Z,95850.16
2018-08-21T04:55:00.770Z,95844.63
2018-08-21T04:57:30.876Z,95842.81
2018-08-21T04:59:59.913Z,95843.27
2018-08-21T05:02:28.987Z,95842.09
2018-08-21T05:07:33.762Z,95842.88
2018-08-21T05:15:14.365Z,95841.98
2018-08-21T05:20:19.129Z,95843.44
2018-08-21T05:22:48.181Z,95845.58
2018-08-21T05:27:53.025Z,95845.48
2018-08-21T05:30:22.114Z,95847.86
2018-08-21T05:32:51.199Z,95851.50
2018-08-21T05:35:20.290Z,95851.47
2018-08-21T05:37:49.347Z,95854.67
2018-08-21T05:40:18.415Z,95854.53
2018-08-21T05:42:47.605Z,95849.74
2018-08-21T05:45:17.523Z,95851.43
2018-08-21T05:47:46.796Z,95856.66
2018-08-21T05:50:16.801Z,95852.48
2018-08-21T05:55:21.747Z,95851.42
2018-08-21T05:57:52.341Z,95853.13
2018-08-21T06:00:34.518Z,95854.93
2018-08-21T06:03:16.391Z,95853.91
2018-08-21T06:08:32.446Z,95856.69
2018-08-21T06:11:01.879Z,95856.38
2018-08-21T06:13:31.342Z,95864.00
2018-08-21T06:16:01.297Z,95864.78
2018-08-21T06:18:30.622Z,95862.76
2018-08-21T06:21:00.054Z,95862.20
2018-08-21T06:23:30.335Z,95863.75
2018-08-21T06:26:00.199Z,95864.28
2018-08-21T06:31:05.084Z,95863.25
2018-08-21T06:33:34.259Z,95861.24
2018-08-21T06:36:03.579Z,95858.28
2018-08-21T06:38:32.621Z,95857.41
2018-08-21T06:41:01.672Z,95852.59
2018-08-21T06:43:30.767Z,95850.34
2018-08-21T06:45:59.822Z,95853.08
2018-08-21T06:51:04.683Z,95850.86
2018-08-21T06:53:34.814Z,95855.86
2018-08-21T06:56:03.858Z,95854.82
2018-08-21T07:01:08.652Z,95855.14
2018-08-21T07:03:38.761Z,95855.71
2018-08-21T07:06:07.824Z,95855.42
2018-08-21T07:08:36.879Z,95854.21
2018-08-21T07:11:05.963Z,95853.78
2018-08-21T07:13:35.027Z,95856.11
2018-08-21T07:18:39.876Z,95855.37
2018-08-21T07:23:44.730Z,95854.27
2018-08-21T07:28:49.537Z,95850.00
2018-08-21T07:31:18.605Z,95850.38
2018-08-21T07:33:47.694Z,95847.09
2018-08-21T07:36:16.721Z,95846.67
2018-08-21T07:38:45.783Z,95842.45
2018-08-21T07:43:52.083Z,95846.23
2018-08-21T07:46:21.344Z,95843.69
2018-08-21T07:48:51.307Z,95846.05
2018-08-21T07:51:20.357Z,95848.34
2018-08-21T07:53:49.402Z,95846.89
2018-08-21T07:56:18.454Z,95845.55
2018-08-21T07:58:49.734Z,95847.30
2018-08-21T08:01:18.802Z,95842.06
2018-08-21T08:03:47.858Z,95846.38
2018-08-21T08:11:29.486Z,95846.05
2018-08-21T08:14:00.411Z,95841.13
2018-08-21T08:16:30.353Z,95836.47
2018-08-21T08:18:59.438Z,95839.42
2018-08-21T08:21:28.459Z,95836.36
2018-08-21T08:23:58.447Z,95833.23
2018-08-21T08:29:03.371Z,95838.33
2018-08-21T08:31:32.407Z,95838.62
2018-08-21T08:36:37.305Z,95830.31
2018-08-21T08:39:06.794Z,95829.30
2018-08-21T08:41:35.919Z,95830.07
2018-08-21T08:44:04.956Z,95826.36
2018-08-21T08:46:34.158Z,95827.78
2018-08-21T08:49:03.218Z,95830.19
2018-08-21T08:51:33.246Z,95829.69
2018-08-21T08:56:38.071Z,95833.05
2018-08-21T08:59:07.205Z,95836.68
2018-08-21T09:01:36.257Z,95832.50
2018-08-21T09:04:06.271Z,95831.08
2018-08-21T09:06:35.324Z,95825.83
2018-08-21T09:09:04.393Z,95824.07
2018-08-21T09:11:33.450Z,95823.23
2018-08-21T09:14:03.494Z,95818.30
2018-08-21T09:16:33.537Z,95822.03
2018-08-21T09:21:38.382Z,95815.13
2018-08-21T09:26:43.369Z,95806.73
2018-08-21T09:29:12.577Z,95803.36
2018-08-21T09:31:41.660Z,95804.29
2018-08-21T09:36:46.592Z,95799.70
2018-08-21T09:39:15.662Z,95799.69
2018-08-21T09:41:44.789Z,95806.39
2018-08-21T09:46:49.635Z,95799.75
2018-08-21T09:49:18.702Z,95801.78
2018-08-21T09:51:48.794Z,95800.28
2018-08-21T09:54:17.786Z,95807.09
2018-08-21T09:56:46.835Z,95796.81
2018-08-21T09:59:16.542Z,95786.97
2018-08-21T10:01:45.577Z,95792.45
2018-08-21T10:04:14.629Z,95788.64
2018-08-21T10:06:44.738Z,95785.15
2018-08-21T10:09:15.609Z,95787.34
2018-08-21T10:11:45.608Z,95786.85
2018-08-21T10:14:27.132Z,95786.53
2018-08-21T10:16:56.633Z,95781.56
2018-08-21T10:19:25.729Z,95781.83
2018-08-21T10:21:54.758Z,95772.42
2018-08-21T10:24:23.868Z,95773.78
2018-08-21T10:26:53.845Z,95776.45
2018-08-21T10:29:23.027Z,95769.05
2018-08-21T10:31:52.041Z,95767.98
2018-08-21T10:34:21.197Z,95763.74
2018-08-21T10:36:50.250Z,95770.41
2018-08-21T10:39:19.281Z,95761.66
2018-08-21T10:41:51.503Z,95761.19
2018-08-21T10:44:20.541Z,95761.88
2018-08-21T10:46:50.644Z,95754.89
2018-08-21T10:49:19.689Z,95757.02
2018-08-21T10:51:48.811Z,95756.58
2018-08-21T10:56:53.534Z,95752.52
2018-08-21T10:59:22.579Z,95755.67
2018-08-21T11:04:27.351Z,95740.66
2018-08-21T11:06:56.430Z,95744.06
2018-08-21T11:09:26.412Z,95737.92
2018-08-21T11:11:55.448Z,95729.27
2018-08-21T11:14:24.507Z,95731.02
2018-08-21T11:16:53.562Z,95736.04
2018-08-21T11:19:22.714Z,95731.50
2018-08-21T11:21:52.751Z,95729.30
2018-08-21T11:24:22.410Z,95728.49
2018-08-21T11:26:51.477Z,95724.55
2018-08-21T11:29:20.880Z,95720.17
2018-08-21T11:31:49.990Z,95718.49
2018-08-21T11:36:55.105Z,95713.72
2018-08-21T11:39:24.163Z,95719.33
2018-08-21T11:41:53.231Z,95716.72
2018-08-21T11:44:22.294Z,95707.84
2018-08-21T11:46:51.349Z,95708.27
2018-08-21T11:49:20.405Z,95706.55
2018-08-21T11:51:49.473Z,95698.17
2018-08-21T11:54:18.520Z,95691.91
2018-08-21T11:56:48.487Z,95688.45
2018-08-21T11:59:17.536Z,95697.33
2018-08-21T12:01:46.591Z,95675.41
2018-08-21T12:04:16.758Z,95688.03
2018-08-21T12:06:45.829Z,95683.23
2018-08-21T12:09:14.882Z,95685.42
2018-08-21T12:11:44.003Z,95680.59
2018-08-21T12:14:13.101Z,95682.95
2018-08-21T12:16:42.168Z,95679.45
2018-08-21T12:19:11.222Z,95676.08
2018-08-21T12:21:40.281Z,95671.86
2018-08-21T12:24:09.355Z,95671.44
2018-08-21T12:26:38.497Z,95668.23
2018-08-21T12:31:43.238Z,95661.53
2018-08-21T12:34:12.359Z,95658.31
2018-08-21T12:36:41.347Z,95647.53
2018-08-21T12:39:10.653Z,95642.76
2018-08-21T12:41:39.703Z,95645.22
2018-08-21T12:44:08.755Z,95649.95
2018-08-21T12:46:41.269Z,95644.06
2018-08-21T12:49:10.343Z,95637.02
2018-08-21T12:51:39.407Z,95635.20
2018-08-21T12:54:08.479Z,95638.45
2018-08-21T12:56:37.535Z,95633.11
2018-08-21T12:59:06.660Z,95632.87
2018-08-21T13:01:35.694Z,95626.60
2018-08-21T13:06:40.551Z,95624.84
2018-08-21T13:09:09.579Z,95630.22
2018-08-21T13:11:39.718Z,95619.37
2018-08-21T13:14:08.766Z,95611.56
2018-08-21T13:19:13.529Z,95613.13
2018-08-21T13:21:42.605Z,95607.99
2018-08-21T13:24:11.719Z,95605.04
2018-08-21T13:29:21.898Z,95605.89
2018-08-21T13:42:17.397Z,95581.31
2018-08-21T13:44:46.437Z,95581.77
2018-08-21T13:47:16.499Z,95579.84
2018-08-21T13:49:45.571Z,95580.09
2018-08-21T13:52:14.631Z,95580.19
2018-08-21T13:54:46.944Z,95573.59
2018-08-21T13:57:16.974Z,95574.69
2018-08-21T13:59:46.026Z,95577.44
2018-08-21T14:02:15.090Z,95569.48
2018-08-21T14:04:44.154Z,95569.75
2018-08-21T14:07:13.212Z,95562.64
2018-08-21T14:09:42.265Z,95568.05
2018-08-21T14:12:11.337Z,95566.91
2018-08-21T14:14:40.441Z,95575.64
2018-08-21T14:17:09.472Z,95570.14
2018-08-21T14:19:38.560Z,95574.72
2018-08-21T14:22:07.813Z,95568.88
2018-08-21T14:24:36.866Z,95565.04
2018-08-21T14:27:05.916Z,95557.41
2018-08-21T14:29:35.058Z,95562.39
2018-08-21T14:32:05.078Z,95563.02
2018-08-21T14:34:34.137Z,95571.08
2018-08-21T14:37:03.191Z,95569.04
2018-08-21T14:39:32.253Z,95564.70
2018-08-21T14:42:01.324Z,95557.61
2018-08-21T14:44:30.379Z,95557.37
2018-08-21T14:47:00.397Z,95563.94
2018-08-21T14:49:29.458Z,95563.19
2018-08-21T14:51:58.682Z,95564.63
2018-08-21T14:54:27.723Z,95560.72
2018-08-21T14:56:56.824Z,95558.77
2018-08-21T14:59:26.185Z,95556.08
2018-08-21T15:01:56.218Z,95552.05
2018-08-21T15:04:25.267Z,95553.38
2018-08-21T15:06:54.325Z,95546.86
2018-08-21T15:09:23.421Z,95544.75
2018-08-21T15:11:52.476Z,95545.72
2018-08-21T15:14:21.525Z,95543.70
2018-08-21T15:16:50.602Z,95542.41
2018-08-21T15:19:19.719Z,95546.69
2018-08-21T15:21:50.783Z,95537.21
2018-08-21T15:24:19.839Z,95542.63
2018-08-21T15:26:49.150Z,95544.11
2018-08-21T15:29:18.209Z,95541.91
2018-08-21T15:31:47.276Z,95545.83
2018-08-21T15:34:16.328Z,95539.41
2018-08-21T15:36:45.385Z,95534.37
2018-08-21T15:41:50.125Z,95539.44
2018-08-21T15:44:19.227Z,95533.11
2018-08-21T15:46:49.227Z,95535.59
2018-08-21T15:49:18.317Z,95535.09
2018-08-21T15:51:47.487Z,95528.95
2018-08-21T15:54:16.626Z,95528.33
2018-08-21T15:56:45.677Z,95525.48
2018-08-21T15:59:15.625Z,95526.59
2018-08-21T16:01:44.645Z,95524.39
2018-08-21T16:04:13.878Z,95524.02
2018-08-21T16:06:43.230Z,95525.58
2018-08-21T16:09:12.331Z,95529.36
2018-08-21T16:11:42.526Z,95520.95
2018-08-21T16:14:12.486Z,95523.56
2018-08-21T16:16:41.545Z,95518.70
2018-08-21T16:19:10.705Z,95520.37
2018-08-21T16:24:15.605Z,95527.73
2018-08-21T16:26:44.670Z,95527.91
2018-08-21T16:29:13.747Z,95531.73
2018-08-21T16:31:43.088Z,95522.31
2018-08-21T16:34:12.162Z,95528.28
2018-08-21T16:36:41.208Z,95527.14
2018-08-21T16:41:46.158Z,95527.27
2018-08-21T16:46:50.987Z,95525.55
2018-08-21T16:49:20.052Z,95533.08
2018-08-21T16:51:49.090Z,95532.44
2018-08-21T16:56:53.918Z,95543.05
2018-08-21T16:59:24.614Z,95538.91
2018-08-21T17:01:59.825Z,95542.23
2018-08-21T17:04:30.790Z,95543.17
2018-08-21T17:07:04.336Z,95540.08
2018-08-21T17:09:33.728Z,95548.77
2018-08-21T17:12:02.782Z,95546.02
2018-08-21T17:14:31.857Z,95548.06
2018-08-21T17:17:00.924Z,95547.55
2018-08-21T17:19:29.981Z,95544.31
2018-08-21T17:21:59.037Z,95546.58
2018-08-21T17:24:28.101Z,95546.02
2018-08-21T17:29:33.034Z,95548.22
2018-08-21T17:32:02.068Z,95550.49
2018-08-21T17:34:31.111Z,95555.83
2018-08-21T17:37:00.226Z,95556.98
2018-08-21T17:39:29.474Z,95562.17
2018-08-21T17:41:58.516Z,95559.36
2018-08-21T17:44:27.573Z,95563.47
2018-08-21T17:46:56.694Z,95562.75
2018-08-21T17:49:25.689Z,95570.31
2018-08-21T17:51:54.783Z,95573.54
2018-08-21T17:54:23.873Z,95578.18
2018-08-21T17:56:52.975Z,95578.41
2018-08-21T17:59:22.231Z,95579.09
2018-08-21T18:04:27.074Z,95582.48
2018-08-21T18:09:31.902Z,95583.42
2018-08-21T18:12:00.980Z,95581.17
2018-08-21T18:14:31.016Z,95579.28
2018-08-21T18:17:00.096Z,95583.06
2018-08-21T18:19:29.158Z,95584.95
2018-08-21T18:21:58.219Z,95589.55
2018-08-21T18:24:27.294Z,95584.38
2018-08-21T18:29:33.362Z,95591.77
2018-08-21T18:32:04.250Z,95597.37
2018-08-21T18:34:33.298Z,95601.36
2018-08-21T18:37:02.383Z,95605.36
2018-08-21T18:39:35.401Z,95603.86
2018-08-21T18:42:09.404Z,95608.91
2018-08-21T18:44:42.606Z,95613.18
2018-08-21T18:47:15.928Z,95615.25
2018-08-21T18:49:49.625Z,95623.12
2018-08-21T18:54:59.861Z,95626.87
2018-08-21T18:57:32.857Z,95633.63
2018-08-21T19:00:06.318Z,95632.13
2018-08-21T19:02:38.466Z,95631.58
2018-08-21T19:07:43.412Z,95641.05
2018-08-21T19:12:44.937Z,95642.35
2018-08-21T19:17:49.360Z,95649.30
2018-08-21T19:20:18.445Z,95655.55
2018-08-21T19:22:47.557Z,95651.33
2018-08-21T19:25:17.680Z,95656.91
2018-08-21T19:27:53.497Z,95661.20
2018-08-21T19:30:31.761Z,95664.05
2018-08-21T19:35:50.093Z,95669.72
2018-08-21T19:38:22.716Z,95671.84
2018-08-21T19:40:56.894Z,95671.43
2018-08-21T19:43:29.261Z,95670.67
2018-08-21T19:51:12.200Z,95673.84
2018-08-21T19:53:43.871Z,95674.37
2018-08-21T19:56:24.512Z,95676.02
2018-08-21T19:58:59.036Z,95678.58
2018-08-21T20:01:31.193Z,95682.06
2018-08-21T20:04:00.395Z,95682.05
2018-08-21T20:09:05.771Z,95684.99
2018-08-21T20:11:34.819Z,95683.53
2018-08-21T20:16:39.629Z,95682.45
2018-08-21T20:19:08.735Z,95683.28
2018-08-21T20:21:38.711Z,95681.63
2018-08-21T20:24:07.770Z,95680.22
2018-08-21T20:26:36.826Z,95679.16
2018-08-21T20:31:42.012Z,95682.44
2018-08-21T20:34:11.074Z,95680.95
2018-08-21T20:36:40.209Z,95679.94
2018-08-21T20:41:44.951Z,95681.38
2018-08-21T20:44:14.025Z,95683.88
2018-08-21T20:46:43.065Z,95684.90
2018-08-21T20:49:12.126Z,95681.02
2018-08-21T20:51:41.187Z,95682.76
2018-08-21T20:54:10.231Z,95684.53
2018-08-21T20:56:39.298Z,95687.70
2018-08-21T20:59:08.391Z,95686.73
2018-08-21T21:01:39.349Z,95685.67
2018-08-21T21:04:08.410Z,95682.69
2018-08-21T21:06:37.457Z,95687.14
2018-08-21T21:09:06.519Z,95682.77
2018-08-21T21:11:35.573Z,95680.73
2018-08-21T21:14:22.645Z,95681.98
2018-08-21T21:17:09.359Z,95681.63
2018-08-21T21:19:56.320Z,95682.47
2018-08-21T21:27:39.870Z,95685.30
2018-08-21T21:30:08.944Z,95688.03
2018-08-21T21:32:38.001Z,95693.21
2018-08-21T21:35:07.070Z,95690.27
2018-08-21T21:37:39.167Z,95698.69
2018-08-21T21:40:08.272Z,95696.16
2018-08-21T21:42:37.336Z,95693.05
2018-08-21T21:45:06.400Z,95693.95
2018-08-21T21:47:35.494Z,95693.02
2018-08-21T21:52:41.792Z,95687.88
2018-08-21T21:55:10.863Z,95690.53
2018-08-21T21:57:39.906Z,95693.25
2018-08-21T22:00:08.977Z,95689.50
2018-08-21T22:02:38.045Z,95697.16
2018-08-21T22:05:07.158Z,95695.61
2018-08-21T22:07:36.208Z,95700.73
2018-08-21T22:10:05.335Z,95699.63
2018-08-21T22:12:34.381Z,95700.39
2018-08-21T22:15:03.465Z,95699.99
2018-08-21T22:20:10.284Z,95696.69
2018-08-21T22:22:39.334Z,95702.54
2018-08-21T22:25:08.385Z,95704.28
2018-08-21T22:27:37.454Z,95703.56
2018-08-21T22:30:06.513Z,95702.73
2018-08-21T22:32:35.579Z,95701.00
2018-08-21T22:35:04.630Z,95700.99
2018-08-21T22:37:33.693Z,95700.52
2018-08-21T22:42:38.549Z,95703.92
2018-08-21T22:45:07.608Z,95703.23
2018-08-21T22:47:36.694Z,95703.23
2018-08-21T22:50:05.730Z,95706.31
2018-08-21T22:52:34.883Z,95705.94
2018-08-21T22:55:03.929Z,95702.73
2018-08-21T23:00:08.786Z,95698.48
2018-08-21T23:02:37.847Z,95694.70
2018-08-21T23:10:19.486Z,95706.05
2018-08-21T23:12:49.549Z,95698.19
2018-08-21T23:15:19.567Z,95698.37
2018-08-21T23:17:48.808Z,95694.03
2018-08-21T23:20:17.879Z,95691.55
2018-08-21T23:22:46.966Z,95691.75
2018-08-21T23:25:16.025Z,95693.33
2018-08-21T23:27:45.077Z,95693.28
2018-08-21T23:30:14.173Z,95693.02
2018-08-21T23:32:44.163Z,95693.42
2018-08-21T23:35:13.226Z,95692.03
2018-08-21T23:37:42.309Z,95690.64
2018-08-21T23:40:11.368Z,95684.66
2018-08-21T23:42:40.417Z,95686.34
2018-08-21T23:45:09.466Z,95683.02
2018-08-21T23:50:14.387Z,95677.74
2018-08-21T23:52:43.503Z,95684.06
2018-08-21T23:55:12.568Z,95682.19
2018-08-21T23:57:41.625Z,95683.42
